Burney, CA (96013)

3:14 AM PDT on August 30, 2014 (GMT -0700)
Black Ranch at Vedder | Change Station
CLOSE
Current Station
Personal Weather Station
Location: Burney, CA
Elevation: 3137 ft
Nearby Weather Stations

Elev 3137 ft 40.93 °N, 121.66 °W | Updated 4 seconds ago

Partly Cloudy
Partly Cloudy
56.0 °F
Feels Like 56.0 °F
N
1.0
Wind Variable Wind from NNW
Gusts 2.0 mph

Today
High -- | Low -- °F
--% Chance of Precip.
Yesterday
High -- | Low -- °F
Precip. -- in
6:31 AM 7:42 PM
Waxing Crescent, 21% visible
Pressure 29.96 in
Visibility 10.0 miles
Clouds Clear
Dew Point 44 °F
Humidity 63%
Rainfall 0.00 in
Snow Depth Not available.
UV 0.0 out of 12
Pollen 8.80 out of 12
Air Quality Not available.
Flu Activity Not available.
METAR KMHS 300956Z AUTO VRB03KT 10SM CLR 16/07 A3002 RMK AO2 SLP144 T01610067

More Conditions Fewer Conditions

Pressure 29.96 in
Visibility 10.0 miles
Clouds Clear
Dew Point 44 °F
Humidity 63%
Rainfall 0.00 in
Snow Depth Not available.
UV 0.0 out of 12
Pollen 8.80 out of 12
Air Quality Not available.
Flu Activity Not available.
METAR KMHS 300956Z AUTO VRB03KT 10SM CLR 16/07 A3002 RMK AO2 SLP144 T01610067

More Conditions Fewer Conditions

10-Day Weather Forecast

Almanac

Astronomy

Aug. 30, 2014 Rise Set
Actual Time 6:31 AM PDT 7:42 PM PDT
Civil Twilight 6:03 AM PDT 8:10 PM PDT
Nautical Twilight 5:29 AM PDT 8:44 PM PDT
Astronomical Twilight 4:53 AM PDT 9:19 PM PDT
Moon 11:26 AM PDT 10:17 PM PDT
Length of Visible Light 14h 07m
Length of Day
13h 10m
Tomorrow will be 2m 36s shorter.
Waxing Crescent, 21% of the Moon is Illuminated
Today
Waxing Crescent
Sep 2
First Quarter
Sep 8
Full
Sep 15
Last Quarter
Sep 24
New

Today's Extremes

State Highs State Lows

Community

WunderPhotos

Upload Photos

1,748,481 photos uploaded!

Nearby

Snow Depth

Station Depth Elevation
Adin Mountain 0 in 6200 ft
Cedar Pass 1 in 7100 ft
CSS Lab 3 in 6900 ft
Rubicon #2 0 in 7500 ft
Echo Peak 1 in 7800 ft

Earthquake Activity

City Distance Mag. Time & Date
No recent earthquake activity has been reported nearby.
Minimum magnitude displayed is 2.5.

Coastal Water Temperatures

Place Temperature
No Stations Reporting

Nearby Weather Stations